Csorna, Hungary
Current Conditions -  °F | °C
As of 8:15 PM on Thursday 27 Nov 2014 (Local Time) from LHPR Reporting Station
Overcast Overcast  
Wind Chill: 27°   Ceiling: 1600
Heat Index: 36°   Visibility: 4mi
Dew Point: 32°   Wind: 14mph
Humidity: 87%   Direction: 120°ESE
Pressure: 30.09"   Gusts: NA
Location:  47.61°N, 17.25°E
Report Text: LHPR 271815Z 12012KT 6000 BKN016 OVC083 02/M00 Q1019
Loading
Personal Weather Stations






























Interactive Weather Map New forecast layout! Learn more

10-Day Weather Forecast

Advertisements
Track Severe Weather on mobile